sensor_id;sensor_type;location;lat;lon;timestamp;temperature;humidity
1461;DHT22;724;49.910;12.530;2023-03-01T00:01:30;-3.90;1.00
1461;DHT22;724;49.910;12.530;2023-03-01T00:03:58;-3.90;1.00
1461;DHT22;724;49.910;12.530;2023-03-01T00:06:26;-3.90;1.00
1461;DHT22;724;49.910;12.530;2023-03-01T00:08:53;-3.90;1.00
1461;DHT22;724;49.910;12.530;2023-03-01T00:11:23;-3.90;1.00
1461;DHT22;724;49.910;12.530;2023-03-01T00:13:52;-3.80;1.00
1461;DHT22;724;49.910;12.530;2023-03-01T00:16:21;-3.90;1.00
1461;DHT22;724;49.910;12.530;2023-03-01T00:18:48;-3.90;1.00
1461;DHT22;724;49.910;12.530;2023-03-01T00:21:16;-3.90;1.00
1461;DHT22;724;49.910;12.530;2023-03-01T00:23:43;-3.90;1.00
1461;DHT22;724;49.910;12.530;2023-03-01T00:26:12;-3.90;1.00
1461;DHT22;724;49.910;12.530;2023-03-01T00:28:40;-3.90;1.00
1461;DHT22;724;49.910;12.530;2023-03-01T00:31:09;-4.00;1.00
1461;DHT22;724;49.910;12.530;2023-03-01T00:33:36;-4.00;1.00
1461;DHT22;724;49.910;12.530;2023-03-01T00:36:03;-4.00;1.00
1461;DHT22;724;49.910;12.530;2023-03-01T00:38:34;-4.00;1.00
1461;DHT22;724;49.910;12.530;2023-03-01T00:41:03;-4.00;1.00
1461;DHT22;724;49.910;12.530;2023-03-01T00:43:31;-4.00;1.00
1461;DHT22;724;49.910;12.530;2023-03-01T00:46:03;-4.00;1.00
1461;DHT22;724;49.910;12.530;2023-03-01T00:48:30;-4.00;1.00
1461;DHT22;724;49.910;12.530;2023-03-01T00:50:57;-4.00;1.00
1461;DHT22;724;49.910;12.530;2023-03-01T00:53:30;-4.00;1.00
1461;DHT22;724;49.910;12.530;2023-03-01T00:55:57;-4.00;1.00
1461;DHT22;724;49.910;12.530;2023-03-01T00:58:24;-4.10;1.00
1461;DHT22;724;49.910;12.530;2023-03-01T01:00:51;-4.00;1.00
1461;DHT22;724;49.910;12.530;2023-03-01T01:03:20;-4.10;1.00
1461;DHT22;724;49.910;12.530;2023-03-01T01:05:47;-4.20;1.00
1461;DHT22;724;49.910;12.530;2023-03-01T01:08:14;-4.20;1.00
1461;DHT22;724;49.910;12.530;2023-03-01T01:10:43;-4.30;1.00
1461;DHT22;724;49.910;12.530;2023-03-01T01:13:10;-4.30;1.00
1461;DHT22;724;49.910;12.530;2023-03-01T01:15:38;-4.30;1.00
1461;DHT22;724;49.910;12.530;2023-03-01T01:18:06;-4.30;1.00
1461;DHT22;724;49.910;12.530;2023-03-01T01:20:35;-4.30;1.00
1461;DHT22;724;49.910;12.530;2023-03-01T01:23:02;-4.20;1.00
1461;DHT22;724;49.910;12.530;2023-03-01T01:25:34;-4.30;1.00
1461;DHT22;724;49.910;12.530;2023-03-01T01:28:01;-4.30;1.00
1461;DHT22;724;49.910;12.530;2023-03-01T01:30:27;-4.40;1.00
1461;DHT22;724;49.910;12.530;2023-03-01T01:32:54;-4.40;1.00
1461;DHT22;724;49.910;12.530;2023-03-01T01:35:21;-4.40;1.00
1461;DHT22;724;49.910;12.530;2023-03-01T01:37:49;-4.40;1.00
1461;DHT22;724;49.910;12.530;2023-03-01T01:40:16;-4.40;1.00
1461;DHT22;724;49.910;12.530;2023-03-01T01:42:43;-4.30;1.00
1461;DHT22;724;49.910;12.530;2023-03-01T01:45:28;-4.40;1.00
1461;DHT22;724;49.910;12.530;2023-03-01T01:48:00;-4.40;1.00
1461;DHT22;724;49.910;12.530;2023-03-01T01:50:27;-4.40;1.00
1461;DHT22;724;49.910;12.530;2023-03-01T01:53:08;-4.40;1.00
1461;DHT22;724;49.910;12.530;2023-03-01T01:55:37;-4.50;1.00
1461;DHT22;724;49.910;12.530;2023-03-01T01:58:08;-4.50;1.00
1461;DHT22;724;49.910;12.530;2023-03-01T02:00:37;-4.40;1.00
1461;DHT22;724;49.910;12.530;2023-03-01T02:03:08;-4.50;1.00
1461;DHT22;724;49.910;12.530;2023-03-01T02:05:40;-4.60;1.00
1461;DHT22;724;49.910;12.530;2023-03-01T02:08:12;-4.50;1.00
1461;DHT22;724;49.910;12.530;2023-03-01T02:10:41;-4.50;1.00
1461;DHT22;724;49.910;12.530;2023-03-01T02:13:08;-4.60;1.00
1461;DHT22;724;49.910;12.530;2023-03-01T02:15:37;-4.50;1.00
1461;DHT22;724;49.910;12.530;2023-03-01T02:18:05;-4.50;1.00
1461;DHT22;724;49.910;12.530;2023-03-01T02:20:35;-4.60;1.00
1461;DHT22;724;49.910;12.530;2023-03-01T02:23:05;-4.60;1.00
1461;DHT22;724;49.910;12.530;2023-03-01T02:25:38;-4.60;1.00
1461;DHT22;724;49.910;12.530;2023-03-01T02:30:39;-4.60;1.00
1461;DHT22;724;49.910;12.530;2023-03-01T02:33:26;-4.60;1.00
1461;DHT22;724;49.910;12.530;2023-03-01T02:35:53;-4.60;1.00
1461;DHT22;724;49.910;12.530;2023-03-01T02:38:21;-4.70;1.00
1461;DHT22;724;49.910;12.530;2023-03-01T02:40:50;-4.60;1.00
1461;DHT22;724;49.910;12.530;2023-03-01T02:43:19;-4.70;1.00
1461;DHT22;724;49.910;12.530;2023-03-01T02:45:50;-4.70;1.00
1461;DHT22;724;49.910;12.530;2023-03-01T02:48:18;-4.70;1.00
1461;DHT22;724;49.910;12.530;2023-03-01T02:50:57;-4.70;1.00
1461;DHT22;724;49.910;12.530;2023-03-01T02:53:34;-4.70;1.00
1461;DHT22;724;49.910;12.530;2023-03-01T02:56:03;-4.80;1.00
1461;DHT22;724;49.910;12.530;2023-03-01T02:58:30;-4.80;1.00
1461;DHT22;724;49.910;12.530;2023-03-01T03:00:58;-4.80;1.00
1461;DHT22;724;49.910;12.530;2023-03-01T03:03:26;-4.80;1.00
1461;DHT22;724;49.910;12.530;2023-03-01T03:05:53;-4.70;1.00
1461;DHT22;724;49.910;12.530;2023-03-01T03:08:19;-4.70;1.00
1461;DHT22;724;49.910;12.530;2023-03-01T03:10:49;-4.80;1.00
1461;DHT22;724;49.910;12.530;2023-03-01T03:13:16;-4.80;1.00
1461;DHT22;724;49.910;12.530;2023-03-01T03:15:44;-4.80;1.00
1461;DHT22;724;49.910;12.530;2023-03-01T03:18:14;-4.90;1.00
1461;DHT22;724;49.910;12.530;2023-03-01T03:20:42;-4.90;1.00
1461;DHT22;724;49.910;12.530;2023-03-01T03:23:11;-4.90;1.00
1461;DHT22;724;49.910;12.530;2023-03-01T03:25:38;-4.80;1.00
1461;DHT22;724;49.910;12.530;2023-03-01T03:28:05;-4.90;1.00
1461;DHT22;724;49.910;12.530;2023-03-01T03:30:36;-4.90;1.00
1461;DHT22;724;49.910;12.530;2023-03-01T03:33:05;-4.90;1.00
1461;DHT22;724;49.910;12.530;2023-03-01T03:35:39;-4.80;1.00
1461;DHT22;724;49.910;12.530;2023-03-01T03:38:07;-4.80;1.00
1461;DHT22;724;49.910;12.530;2023-03-01T03:40:42;-4.80;1.00
1461;DHT22;724;49.910;12.530;2023-03-01T03:43:11;-4.80;1.00
1461;DHT22;724;49.910;12.530;2023-03-01T03:45:38;-4.80;1.00
1461;DHT22;724;49.910;12.530;2023-03-01T03:48:07;-4.80;1.00
1461;DHT22;724;49.910;12.530;2023-03-01T03:50:37;-4.70;1.00
1461;DHT22;724;49.910;12.530;2023-03-01T03:53:06;-4.70;1.00
1461;DHT22;724;49.910;12.530;2023-03-01T03:55:33;-4.80;1.00
1461;DHT22;724;49.910;12.530;2023-03-01T03:58:01;-4.80;1.00
1461;DHT22;724;49.910;12.530;2023-03-01T04:00:32;-4.80;1.00
1461;DHT22;724;49.910;12.530;2023-03-01T04:03:00;-4.80;1.00
1461;DHT22;724;49.910;12.530;2023-03-01T04:05:27;-4.70;1.00
1461;DHT22;724;49.910;12.530;2023-03-01T04:07:56;-4.80;1.00
1461;DHT22;724;49.910;12.530;2023-03-01T04:10:28;-4.80;1.00
1461;DHT22;724;49.910;12.530;2023-03-01T04:12:55;-4.80;1.00
1461;DHT22;724;49.910;12.530;2023-03-01T04:15:23;-4.80;1.00
1461;DHT22;724;49.910;12.530;2023-03-01T04:17:52;-4.90;1.00
1461;DHT22;724;49.910;12.530;2023-03-01T04:20:21;-4.90;1.00
1461;DHT22;724;49.910;12.530;2023-03-01T04:22:51;-4.90;1.00
1461;DHT22;724;49.910;12.530;2023-03-01T04:25:19;-4.90;1.00
1461;DHT22;724;49.910;12.530;2023-03-01T04:27:46;-5.00;1.00
1461;DHT22;724;49.910;12.530;2023-03-01T04:30:13;-5.00;1.00
1461;DHT22;724;49.910;12.530;2023-03-01T04:32:40;-5.00;1.00
1461;DHT22;724;49.910;12.530;2023-03-01T04:35:08;-5.00;1.00
1461;DHT22;724;49.910;12.530;2023-03-01T04:37:35;-5.00;1.00
1461;DHT22;724;49.910;12.530;2023-03-01T04:40:02;-5.00;1.00
1461;DHT22;724;49.910;12.530;2023-03-01T04:42:39;-5.00;1.00
1461;DHT22;724;49.910;12.530;2023-03-01T04:45:06;-5.00;1.00
1461;DHT22;724;49.910;12.530;2023-03-01T04:47:40;-4.90;1.00
1461;DHT22;724;49.910;12.530;2023-03-01T04:50:09;-5.00;1.00
1461;DHT22;724;49.910;12.530;2023-03-01T04:52:36;-5.00;1.00
1461;DHT22;724;49.910;12.530;2023-03-01T04:55:04;-5.00;1.00
1461;DHT22;724;49.910;12.530;2023-03-01T04:57:31;-5.10;1.00
1461;DHT22;724;49.910;12.530;2023-03-01T04:59:59;-5.00;1.00
1461;DHT22;724;49.910;12.530;2023-03-01T05:02:26;-5.10;1.00
1461;DHT22;724;49.910;12.530;2023-03-01T05:04:53;-5.10;1.00
1461;DHT22;724;49.910;12.530;2023-03-01T05:07:23;-5.10;1.00
1461;DHT22;724;49.910;12.530;2023-03-01T05:09:50;-5.00;1.00
1461;DHT22;724;49.910;12.530;2023-03-01T05:12:16;-5.00;1.00
1461;DHT22;724;49.910;12.530;2023-03-01T05:14:43;-5.10;1.00
1461;DHT22;724;49.910;12.530;2023-03-01T05:17:11;-5.00;1.00
1461;DHT22;724;49.910;12.530;2023-03-01T05:19:38;-5.10;1.00
1461;DHT22;724;49.910;12.530;2023-03-01T05:22:08;-5.10;1.00
1461;DHT22;724;49.910;12.530;2023-03-01T05:24:35;-5.10;1.00
1461;DHT22;724;49.910;12.530;2023-03-01T05:27:04;-5.20;1.00
1461;DHT22;724;49.910;12.530;2023-03-01T05:29:32;-5.20;1.00
1461;DHT22;724;49.910;12.530;2023-03-01T05:32:01;-5.20;1.00
1461;DHT22;724;49.910;12.530;2023-03-01T05:34:32;-5.20;1.00
1461;DHT22;724;49.910;12.530;2023-03-01T05:37:00;-5.10;1.00
1461;DHT22;724;49.910;12.530;2023-03-01T05:39:28;-5.20;1.00
1461;DHT22;724;49.910;12.530;2023-03-01T05:41:57;-5.20;23.20
1461;DHT22;724;49.910;12.530;2023-03-01T05:44:24;-5.30;62.80
1461;DHT22;724;49.910;12.530;2023-03-01T05:46:51;-5.20;90.00
1461;DHT22;724;49.910;12.530;2023-03-01T05:49:18;-5.30;99.60
1461;DHT22;724;49.910;12.530;2023-03-01T05:51:51;-5.30;99.90
1461;DHT22;724;49.910;12.530;2023-03-01T05:54:18;-5.30;99.90
1461;DHT22;724;49.910;12.530;2023-03-01T05:56:45;-5.30;99.90
1461;DHT22;724;49.910;12.530;2023-03-01T05:59:12;-5.20;99.90
1461;DHT22;724;49.910;12.530;2023-03-01T06:01:41;-5.20;99.90
1461;DHT22;724;49.910;12.530;2023-03-01T06:04:08;-5.20;99.90
1461;DHT22;724;49.910;12.530;2023-03-01T06:06:35;-5.10;99.90
1461;DHT22;724;49.910;12.530;2023-03-01T06:09:04;-5.10;99.90
1461;DHT22;724;49.910;12.530;2023-03-01T06:11:33;-5.10;99.90
1461;DHT22;724;49.910;12.530;2023-03-01T06:14:00;-5.00;99.90
1461;DHT22;724;49.910;12.530;2023-03-01T06:16:27;-4.40;99.90
1461;DHT22;724;49.910;12.530;2023-03-01T06:18:53;-3.70;1.00
1461;DHT22;724;49.910;12.530;2023-03-01T06:21:20;-3.00;1.00
1461;DHT22;724;49.910;12.530;2023-03-01T06:23:47;-2.40;1.00
1461;DHT22;724;49.910;12.530;2023-03-01T06:26:15;-1.80;1.00
1461;DHT22;724;49.910;12.530;2023-03-01T06:28:42;-2.00;1.00
1461;DHT22;724;49.910;12.530;2023-03-01T06:31:11;-1.50;1.00
1461;DHT22;724;49.910;12.530;2023-03-01T06:33:38;-1.50;1.00
1461;DHT22;724;49.910;12.530;2023-03-01T06:36:05;-1.70;1.00
1461;DHT22;724;49.910;12.530;2023-03-01T06:38:32;-1.00;1.00
1461;DHT22;724;49.910;12.530;2023-03-01T06:40:59;-1.00;1.00
1461;DHT22;724;49.910;12.530;2023-03-01T06:43:28;-0.30;1.00
1461;DHT22;724;49.910;12.530;2023-03-01T06:45:55;-0.60;1.00
1461;DHT22;724;49.910;12.530;2023-03-01T06:48:21;-0.70;1.00
1461;DHT22;724;49.910;12.530;2023-03-01T06:50:48;0.40;1.00
1461;DHT22;724;49.910;12.530;2023-03-01T06:53:15;0.00;1.00
1461;DHT22;724;49.910;12.530;2023-03-01T06:55:41;0.50;1.00
1461;DHT22;724;49.910;12.530;2023-03-01T06:58:09;0.30;1.00
1461;DHT22;724;49.910;12.530;2023-03-01T07:00:37;1.10;1.00
1461;DHT22;724;49.910;12.530;2023-03-01T07:03:06;1.60;1.00
1461;DHT22;724;49.910;12.530;2023-03-01T07:05:33;1.00;1.00
1461;DHT22;724;49.910;12.530;2023-03-01T07:08:00;1.70;1.00
1461;DHT22;724;49.910;12.530;2023-03-01T07:10:27;1.60;1.00
1461;DHT22;724;49.910;12.530;2023-03-01T07:12:55;2.10;1.00
1461;DHT22;724;49.910;12.530;2023-03-01T07:15:22;3.00;1.00
1461;DHT22;724;49.910;12.530;2023-03-01T07:17:50;3.30;1.00
1461;DHT22;724;49.910;12.530;2023-03-01T07:20:17;2.50;99.90
1461;DHT22;724;49.910;12.530;2023-03-01T07:22:44;3.60;99.90
1461;DHT22;724;49.910;12.530;2023-03-01T07:25:11;2.90;99.90
1461;DHT22;724;49.910;12.530;2023-03-01T07:27:37;3.60;99.90
1461;DHT22;724;49.910;12.530;2023-03-01T07:30:05;4.20;99.90
1461;DHT22;724;49.910;12.530;2023-03-01T07:32:32;3.40;99.90
1461;DHT22;724;49.910;12.530;2023-03-01T07:35:00;4.60;99.90
1461;DHT22;724;49.910;12.530;2023-03-01T07:37:27;4.60;99.90
1461;DHT22;724;49.910;12.530;2023-03-01T07:39:54;4.70;99.90
1461;DHT22;724;49.910;12.530;2023-03-01T07:42:21;5.00;99.90
1461;DHT22;724;49.910;12.530;2023-03-01T07:44:47;4.10;99.90
1461;DHT22;724;49.910;12.530;2023-03-01T07:47:14;5.50;99.90
1461;DHT22;724;49.910;12.530;2023-03-01T07:49:41;4.90;99.90
1461;DHT22;724;49.910;12.530;2023-03-01T07:52:11;4.90;99.90
1461;DHT22;724;49.910;12.530;2023-03-01T07:54:37;6.00;99.90
1461;DHT22;724;49.910;12.530;2023-03-01T07:57:04;5.80;99.90
1461;DHT22;724;49.910;12.530;2023-03-01T07:59:31;6.20;99.90
1461;DHT22;724;49.910;12.530;2023-03-01T08:01:58;7.50;99.90
1461;DHT22;724;49.910;12.530;2023-03-01T08:04:25;5.70;99.90
1461;DHT22;724;49.910;12.530;2023-03-01T08:06:53;6.80;99.90
1461;DHT22;724;49.910;12.530;2023-03-01T08:09:21;6.20;99.90
1461;DHT22;724;49.910;12.530;2023-03-01T08:11:48;5.20;99.90
1461;DHT22;724;49.910;12.530;2023-03-01T08:14:15;7.40;99.90
1461;DHT22;724;49.910;12.530;2023-03-01T08:16:42;7.00;99.90
1461;DHT22;724;49.910;12.530;2023-03-01T08:19:10;7.30;99.90
1461;DHT22;724;49.910;12.530;2023-03-01T08:21:38;5.60;99.90
1461;DHT22;724;49.910;12.530;2023-03-01T08:24:06;5.60;99.90
1461;DHT22;724;49.910;12.530;2023-03-01T08:26:34;4.80;99.90
1461;DHT22;724;49.910;12.530;2023-03-01T08:29:01;6.60;99.90
1461;DHT22;724;49.910;12.530;2023-03-01T08:31:32;6.50;99.90
1461;DHT22;724;49.910;12.530;2023-03-01T08:34:02;6.00;99.90
1461;DHT22;724;49.910;12.530;2023-03-01T08:36:31;7.20;99.90
1461;DHT22;724;49.910;12.530;2023-03-01T08:38:58;7.30;99.90
1461;DHT22;724;49.910;12.530;2023-03-01T08:41:26;6.60;99.90
1461;DHT22;724;49.910;12.530;2023-03-01T08:43:54;5.30;99.90
1461;DHT22;724;49.910;12.530;2023-03-01T08:46:24;6.80;99.90
1461;DHT22;724;49.910;12.530;2023-03-01T08:48:51;5.20;99.90
1461;DHT22;724;49.910;12.530;2023-03-01T08:51:21;5.50;99.90
1461;DHT22;724;49.910;12.530;2023-03-01T08:53:49;6.70;99.90
1461;DHT22;724;49.910;12.530;2023-03-01T08:56:16;6.70;99.90
1461;DHT22;724;49.910;12.530;2023-03-01T08:58:45;6.10;99.90
1461;DHT22;724;49.910;12.530;2023-03-01T09:01:15;6.00;96.10
1461;DHT22;724;49.910;12.530;2023-03-01T09:03:42;4.70;78.80
1461;DHT22;724;49.910;12.530;2023-03-01T09:06:10;4.60;80.20
1461;DHT22;724;49.910;12.530;2023-03-01T09:08:39;5.50;95.20
1461;DHT22;724;49.910;12.530;2023-03-01T09:11:08;6.10;94.80
1461;DHT22;724;49.910;12.530;2023-03-01T09:13:36;5.10;75.50
1461;DHT22;724;49.910;12.530;2023-03-01T09:16:07;4.60;61.60
1461;DHT22;724;49.910;12.530;2023-03-01T09:18:35;5.00;72.40
1461;DHT22;724;49.910;12.530;2023-03-01T09:21:03;4.70;63.90
1461;DHT22;724;49.910;12.530;2023-03-01T09:23:33;5.20;77.70
1461;DHT22;724;49.910;12.530;2023-03-01T09:26:00;6.00;87.90
1461;DHT22;724;49.910;12.530;2023-03-01T09:28:26;5.60;70.50
1461;DHT22;724;49.910;12.530;2023-03-01T09:30:53;5.50;72.50
1461;DHT22;724;49.910;12.530;2023-03-01T09:33:20;5.50;67.20
1461;DHT22;724;49.910;12.530;2023-03-01T09:35:55;5.50;66.60
1461;DHT22;724;49.910;12.530;2023-03-01T09:38:21;5.10;56.60
1461;DHT22;724;49.910;12.530;2023-03-01T09:40:48;5.20;58.70
1461;DHT22;724;49.910;12.530;2023-03-01T09:43:20;5.70;67.30
1461;DHT22;724;49.910;12.530;2023-03-01T09:45:49;4.80;43.20
1461;DHT22;724;49.910;12.530;2023-03-01T09:48:20;4.70;44.70
1461;DHT22;724;49.910;12.530;2023-03-01T09:50:50;5.20;59.10
1461;DHT22;724;49.910;12.530;2023-03-01T09:53:19;5.60;63.30
1461;DHT22;724;49.910;12.530;2023-03-01T09:55:51;6.10;74.60
1461;DHT22;724;49.910;12.530;2023-03-01T09:58:31;6.30;65.90
1461;DHT22;724;49.910;12.530;2023-03-01T10:01:05;6.60;71.10
1461;DHT22;724;49.910;12.530;2023-03-01T10:03:39;5.60;47.70
1461;DHT22;724;49.910;12.530;2023-03-01T10:06:13;6.60;59.30
1461;DHT22;724;49.910;12.530;2023-03-01T10:08:46;5.90;39.80
1461;DHT22;724;49.910;12.530;2023-03-01T10:11:21;6.20;39.50
1461;DHT22;724;49.910;12.530;2023-03-01T10:13:52;6.10;36.80
1461;DHT22;724;49.910;12.530;2023-03-01T10:16:25;7.00;47.80
1461;DHT22;724;49.910;12.530;2023-03-01T10:18:58;6.10;29.80
1461;DHT22;724;49.910;12.530;2023-03-01T10:21:28;6.30;33.20
1461;DHT22;724;49.910;12.530;2023-03-01T10:24:00;4.90;15.30
1461;DHT22;724;49.910;12.530;2023-03-01T10:29:26;6.40;37.80
1461;DHT22;724;49.910;12.530;2023-03-01T10:31:54;6.90;37.20
1461;DHT22;724;49.910;12.530;2023-03-01T10:34:28;6.30;26.20
1461;DHT22;724;49.910;12.530;2023-03-01T10:37:01;6.60;33.10
1461;DHT22;724;49.910;12.530;2023-03-01T10:39:28;6.30;16.30
1461;DHT22;724;49.910;12.530;2023-03-01T10:41:57;6.20;17.30
1461;DHT22;724;49.910;12.530;2023-03-01T10:44:40;6.50;18.20
1461;DHT22;724;49.910;12.530;2023-03-01T10:47:19;6.50;11.90
1461;DHT22;724;49.910;12.530;2023-03-01T10:50:01;6.40;13.10
1461;DHT22;724;49.910;12.530;2023-03-01T10:52:32;5.70;3.00
1461;DHT22;724;49.910;12.530;2023-03-01T10:55:01;5.90;1.00
1461;DHT22;724;49.910;12.530;2023-03-01T10:57:31;6.50;14.90
1461;DHT22;724;49.910;12.530;2023-03-01T11:00:18;6.40;6.20
1461;DHT22;724;49.910;12.530;2023-03-01T11:02:48;5.90;1.00
1461;DHT22;724;49.910;12.530;2023-03-01T11:05:25;5.80;1.00
1461;DHT22;724;49.910;12.530;2023-03-01T11:07:56;6.20;2.60
1461;DHT22;724;49.910;12.530;2023-03-01T11:10:27;5.90;1.00
1461;DHT22;724;49.910;12.530;2023-03-01T11:13:06;7.00;7.90
1461;DHT22;724;49.910;12.530;2023-03-01T11:15:33;6.80;7.30
1461;DHT22;724;49.910;12.530;2023-03-01T11:18:01;5.90;1.00
1461;DHT22;724;49.910;12.530;2023-03-01T11:20:31;6.80;3.80
1461;DHT22;724;49.910;12.530;2023-03-01T11:23:03;8.10;18.50
1461;DHT22;724;49.910;12.530;2023-03-01T11:25:34;8.40;18.30
1461;DHT22;724;49.910;12.530;2023-03-01T11:28:09;7.30;1.00
1461;DHT22;724;49.910;12.530;2023-03-01T11:30:51;7.60;2.60
1461;DHT22;724;49.910;12.530;2023-03-01T11:33:35;8.00;6.40
1461;DHT22;724;49.910;12.530;2023-03-01T11:36:08;10.60;38.70
1461;DHT22;724;49.910;12.530;2023-03-01T11:38:41;11.30;29.30
1461;DHT22;724;49.910;12.530;2023-03-01T11:41:14;9.70;5.20
1461;DHT22;724;49.910;12.530;2023-03-01T11:43:49;8.50;1.00
1461;DHT22;724;49.910;12.530;2023-03-01T11:46:46;7.80;1.00
1461;DHT22;724;49.910;12.530;2023-03-01T11:49:37;8.20;1.00
1461;DHT22;724;49.910;12.530;2023-03-01T11:52:14;8.20;1.00
1461;DHT22;724;49.910;12.530;2023-03-01T11:54:59;9.50;1.00
1461;DHT22;724;49.910;12.530;2023-03-01T11:57:43;11.10;7.50
1461;DHT22;724;49.910;12.530;2023-03-01T12:00:22;9.00;1.00
1461;DHT22;724;49.910;12.530;2023-03-01T12:03:21;9.60;1.00
1461;DHT22;724;49.910;12.530;2023-03-01T12:08:56;6.20;1.00
1461;DHT22;724;49.910;12.530;2023-03-01T12:11:56;4.80;1.00
1461;DHT22;724;49.910;12.530;2023-03-01T12:14:47;5.60;1.00
1461;DHT22;724;49.910;12.530;2023-03-01T12:17:41;5.30;1.00
1461;DHT22;724;49.910;12.530;2023-03-01T12:20:18;5.20;1.00
1461;DHT22;724;49.910;12.530;2023-03-01T12:22:57;4.90;1.00
1461;DHT22;724;49.910;12.530;2023-03-01T12:25:28;5.30;1.00
1461;DHT22;724;49.910;12.530;2023-03-01T12:28:08;4.80;1.00
1461;DHT22;724;49.910;12.530;2023-03-01T12:30:52;4.50;1.00
1461;DHT22;724;49.910;12.530;2023-03-01T12:33:30;4.60;1.00
1461;DHT22;724;49.910;12.530;2023-03-01T12:39:04;4.30;1.00
1461;DHT22;724;49.910;12.530;2023-03-01T12:41:43;4.30;1.00
1461;DHT22;724;49.910;12.530;2023-03-01T12:44:21;4.60;1.00
1461;DHT22;724;49.910;12.530;2023-03-01T12:46:57;5.10;1.00
1461;DHT22;724;49.910;12.530;2023-03-01T12:49:34;5.10;1.00
1461;DHT22;724;49.910;12.530;2023-03-01T12:52:09;5.30;1.00
1461;DHT22;724;49.910;12.530;2023-03-01T12:54:37;5.10;1.00
1461;DHT22;724;49.910;12.530;2023-03-01T12:57:11;5.20;1.00
1461;DHT22;724;49.910;12.530;2023-03-01T12:59:51;4.60;1.00
1461;DHT22;724;49.910;12.530;2023-03-01T13:02:24;5.10;1.00
1461;DHT22;724;49.910;12.530;2023-03-01T13:05:14;4.60;1.00
1461;DHT22;724;49.910;12.530;2023-03-01T13:07:53;5.30;1.00
1461;DHT22;724;49.910;12.530;2023-03-01T13:10:31;4.60;1.00
1461;DHT22;724;49.910;12.530;2023-03-01T13:13:14;4.30;1.00
1461;DHT22;724;49.910;12.530;2023-03-01T13:15:46;4.40;1.00
1461;DHT22;724;49.910;12.530;2023-03-01T13:18:33;4.90;1.00
1461;DHT22;724;49.910;12.530;2023-03-01T13:21:02;5.50;4.20
1461;DHT22;724;49.910;12.530;2023-03-01T13:23:33;5.50;1.50
1461;DHT22;724;49.910;12.530;2023-03-01T13:26:10;5.80;12.30
1461;DHT22;724;49.910;12.530;2023-03-01T13:28:52;5.40;1.30
1461;DHT22;724;49.910;12.530;2023-03-01T13:34:51;4.40;1.00
1461;DHT22;724;49.910;12.530;2023-03-01T13:37:31;4.80;1.00
1461;DHT22;724;49.910;12.530;2023-03-01T13:40:01;4.80;2.00
1461;DHT22;724;49.910;12.530;2023-03-01T13:42:44;5.00;9.60
1461;DHT22;724;49.910;12.530;2023-03-01T13:45:33;5.00;10.30
1461;DHT22;724;49.910;12.530;2023-03-01T13:48:03;5.10;9.90
1461;DHT22;724;49.910;12.530;2023-03-01T13:50:43;4.70;12.10
1461;DHT22;724;49.910;12.530;2023-03-01T13:53:16;4.40;4.10
1461;DHT22;724;49.910;12.530;2023-03-01T13:55:46;4.90;12.70
1461;DHT22;724;49.910;12.530;2023-03-01T13:58:22;4.60;10.20
1461;DHT22;724;49.910;12.530;2023-03-01T14:00:57;4.50;17.40
1461;DHT22;724;49.910;12.530;2023-03-01T14:03:26;4.10;21.50
1461;DHT22;724;49.910;12.530;2023-03-01T14:06:01;3.90;13.90
1461;DHT22;724;49.910;12.530;2023-03-01T14:08:30;3.80;16.00
1461;DHT22;724;49.910;12.530;2023-03-01T14:11:25;4.10;25.10
1461;DHT22;724;49.910;12.530;2023-03-01T14:14:12;4.00;22.30
1461;DHT22;724;49.910;12.530;2023-03-01T14:16:49;3.90;22.10
1461;DHT22;724;49.910;12.530;2023-03-01T14:19:21;3.70;23.20
1461;DHT22;724;49.910;12.530;2023-03-01T14:21:58;4.00;30.70
1461;DHT22;724;49.910;12.530;2023-03-01T14:24:27;3.70;33.20
1461;DHT22;724;49.910;12.530;2023-03-01T14:26:54;3.90;43.50
1461;DHT22;724;49.910;12.530;2023-03-01T14:29:26;3.90;43.70
1461;DHT22;724;49.910;12.530;2023-03-01T14:31:53;3.80;46.20
1461;DHT22;724;49.910;12.530;2023-03-01T14:34:21;3.60;41.00
1461;DHT22;724;49.910;12.530;2023-03-01T14:36:49;3.50;50.20
1461;DHT22;724;49.910;12.530;2023-03-01T14:39:19;3.70;58.20
1461;DHT22;724;49.910;12.530;2023-03-01T14:41:46;4.00;70.70
1461;DHT22;724;49.910;12.530;2023-03-01T14:44:16;4.20;69.50
1461;DHT22;724;49.910;12.530;2023-03-01T14:46:45;4.00;62.10
1461;DHT22;724;49.910;12.530;2023-03-01T14:49:15;4.10;71.60
1461;DHT22;724;49.910;12.530;2023-03-01T14:51:51;4.10;66.60
1461;DHT22;724;49.910;12.530;2023-03-01T14:54:24;4.10;67.30
1461;DHT22;724;49.910;12.530;2023-03-01T14:56:53;4.10;69.10
1461;DHT22;724;49.910;12.530;2023-03-01T14:59:22;3.80;64.70
1461;DHT22;724;49.910;12.530;2023-03-01T15:01:50;3.70;72.90
1461;DHT22;724;49.910;12.530;2023-03-01T15:04:18;4.00;86.60
1461;DHT22;724;49.910;12.530;2023-03-01T15:06:46;3.90;81.50
1461;DHT22;724;49.910;12.530;2023-03-01T15:09:15;3.50;73.40
1461;DHT22;724;49.910;12.530;2023-03-01T15:11:44;3.50;81.20
1461;DHT22;724;49.910;12.530;2023-03-01T15:14:28;3.50;87.90
1461;DHT22;724;49.910;12.530;2023-03-01T15:16:56;3.40;88.60
1461;DHT22;724;49.910;12.530;2023-03-01T15:19:24;3.40;90.40
1461;DHT22;724;49.910;12.530;2023-03-01T15:21:54;3.20;90.40
1461;DHT22;724;49.910;12.530;2023-03-01T15:24:24;3.00;90.60
1461;DHT22;724;49.910;12.530;2023-03-01T15:26:56;3.00;91.40
1461;DHT22;724;49.910;12.530;2023-03-01T15:29:28;3.10;95.20
1461;DHT22;724;49.910;12.530;2023-03-01T15:31:58;3.10;96.30
1461;DHT22;724;49.910;12.530;2023-03-01T15:34:26;3.10;98.20
1461;DHT22;724;49.910;12.530;2023-03-01T15:36:55;3.00;97.70
1461;DHT22;724;49.910;12.530;2023-03-01T15:39:37;2.90;98.70
1461;DHT22;724;49.910;12.530;2023-03-01T15:42:09;2.90;99.90
1461;DHT22;724;49.910;12.530;2023-03-01T15:44:38;2.90;99.90
1461;DHT22;724;49.910;12.530;2023-03-01T15:47:30;2.70;99.90
1461;DHT22;724;49.910;12.530;2023-03-01T15:49:58;2.70;99.90
1461;DHT22;724;49.910;12.530;2023-03-01T15:52:28;2.60;99.90
1461;DHT22;724;49.910;12.530;2023-03-01T15:55:03;2.50;99.90
1461;DHT22;724;49.910;12.530;2023-03-01T15:57:33;2.50;99.90
1461;DHT22;724;49.910;12.530;2023-03-01T16:00:00;2.60;99.90
1461;DHT22;724;49.910;12.530;2023-03-01T16:02:31;2.40;99.90
1461;DHT22;724;49.910;12.530;2023-03-01T16:04:59;2.40;99.90
1461;DHT22;724;49.910;12.530;2023-03-01T16:07:27;2.40;99.90
1461;DHT22;724;49.910;12.530;2023-03-01T16:09:54;2.20;99.90
1461;DHT22;724;49.910;12.530;2023-03-01T16:12:23;2.10;99.90
1461;DHT22;724;49.910;12.530;2023-03-01T16:14:53;2.00;99.90
1461;DHT22;724;49.910;12.530;2023-03-01T16:17:22;2.00;99.90
1461;DHT22;724;49.910;12.530;2023-03-01T16:20:00;1.90;99.90
1461;DHT22;724;49.910;12.530;2023-03-01T16:22:27;1.90;99.90
1461;DHT22;724;49.910;12.530;2023-03-01T16:24:54;1.80;99.90
1461;DHT22;724;49.910;12.530;2023-03-01T16:27:25;1.70;99.90
1461;DHT22;724;49.910;12.530;2023-03-01T16:29:54;1.60;99.90
1461;DHT22;724;49.910;12.530;2023-03-01T16:32:21;1.60;99.90
1461;DHT22;724;49.910;12.530;2023-03-01T16:34:47;1.60;99.90
1461;DHT22;724;49.910;12.530;2023-03-01T16:37:14;1.50;99.90
1461;DHT22;724;49.910;12.530;2023-03-01T16:39:41;1.40;99.90
1461;DHT22;724;49.910;12.530;2023-03-01T16:42:08;1.40;99.90
1461;DHT22;724;49.910;12.530;2023-03-01T16:44:35;1.30;99.90
1461;DHT22;724;49.910;12.530;2023-03-01T16:47:03;1.20;99.90
1461;DHT22;724;49.910;12.530;2023-03-01T16:49:30;1.10;99.90
1461;DHT22;724;49.910;12.530;2023-03-01T16:51:56;1.00;99.90
1461;DHT22;724;49.910;12.530;2023-03-01T16:54:24;1.00;99.90
1461;DHT22;724;49.910;12.530;2023-03-01T16:56:51;1.00;99.90